createdAt,value
2022-08-27T00:00:21.469Z,18.52
2022-08-27T00:03:08.323Z,18.35
2022-08-27T00:05:40.687Z,18.26
2022-08-27T00:08:15.682Z,18.22
2022-08-27T00:10:47.383Z,18.22
2022-08-27T00:13:19.187Z,18.21
2022-08-27T00:15:50.800Z,18.25
2022-08-27T00:18:22.877Z,18.32
2022-08-27T00:20:54.961Z,18.33
2022-08-27T00:23:26.601Z,18.34
2022-08-27T00:25:59.086Z,18.38
2022-08-27T00:28:32.063Z,18.38
2022-08-27T00:31:03.904Z,18.31
2022-08-27T00:33:35.893Z,18.24
2022-08-27T00:36:08.361Z,18.14
2022-08-27T00:38:41.274Z,18.00
2022-08-27T00:41:15.729Z,17.86
2022-08-27T00:43:54.234Z,17.75
2022-08-27T00:46:35.553Z,17.70
2022-08-27T00:49:13.025Z,17.69
2022-08-27T00:51:45.937Z,17.71
2022-08-27T00:54:21.989Z,17.69
2022-08-27T00:56:54.060Z,17.64
2022-08-27T00:59:29.326Z,17.58
2022-08-27T01:02:20.515Z,17.55
2022-08-27T01:04:55.772Z,17.54
2022-08-27T01:07:30.513Z,17.56
2022-08-27T01:10:03.786Z,17.57
2022-08-27T01:12:36.927Z,17.54
2022-08-27T01:15:19.770Z,17.47
2022-08-27T01:17:52.692Z,17.39
2022-08-27T01:20:27.270Z,17.35
2022-08-27T01:23:07.181Z,17.37
2022-08-27T01:25:40.545Z,17.42
2022-08-27T01:28:13.974Z,17.47
2022-08-27T01:30:45.649Z,17.50
2022-08-27T01:33:20.876Z,17.49
2022-08-27T01:35:53.646Z,17.49
2022-08-27T01:38:30.662Z,17.47
2022-08-27T01:41:03.671Z,17.48
2022-08-27T01:43:35.442Z,17.49
2022-08-27T01:46:07.230Z,17.50
2022-08-27T01:48:38.973Z,17.51
2022-08-27T01:51:11.160Z,17.48
2022-08-27T01:53:42.944Z,17.41
2022-08-27T01:56:17.117Z,17.35
2022-08-27T01:58:50.001Z,17.24
2022-08-27T02:01:23.255Z,17.13
2022-08-27T02:03:55.873Z,17.03
2022-08-27T02:06:27.532Z,16.95
2022-08-27T02:09:00.143Z,16.91
2022-08-27T02:11:31.716Z,16.90
2022-08-27T02:14:03.632Z,16.89
2022-08-27T02:16:49.785Z,16.81
2022-08-27T02:19:25.038Z,16.68
2022-08-27T02:22:00.294Z,16.54
2022-08-27T02:24:34.482Z,16.45
2022-08-27T02:27:06.449Z,16.46
2022-08-27T02:29:38.152Z,16.50
2022-08-27T02:32:17.735Z,16.52
2022-08-27T02:34:58.872Z,16.49
2022-08-27T02:37:31.164Z,16.44
2022-08-27T02:40:02.959Z,16.44
2022-08-27T02:42:35.181Z,16.45
2022-08-27T02:45:09.466Z,16.47
2022-08-27T02:47:41.259Z,16.47
2022-08-27T02:50:14.501Z,16.41
2022-08-27T02:52:46.603Z,16.35
2022-08-27T02:55:18.524Z,16.32
2022-08-27T02:57:50.215Z,16.31
2022-08-27T03:00:23.417Z,16.40
2022-08-27T03:02:55.300Z,16.48
2022-08-27T03:05:27.830Z,16.40
2022-08-27T03:07:59.875Z,16.34
2022-08-27T03:10:31.697Z,16.25
2022-08-27T03:13:05.075Z,16.16
2022-08-27T03:15:39.817Z,16.12
2022-08-27T03:18:21.583Z,16.13
2022-08-27T03:20:55.743Z,16.14
2022-08-27T03:23:29.297Z,16.14
2022-08-27T03:26:03.014Z,16.18
2022-08-27T03:28:36.752Z,16.20
2022-08-27T03:31:15.199Z,16.17
2022-08-27T03:33:47.221Z,16.11
2022-08-27T03:36:18.936Z,16.05
2022-08-27T03:38:50.628Z,16.01
2022-08-27T03:41:22.772Z,15.97
2022-08-27T03:44:12.022Z,15.99
2022-08-27T03:46:53.567Z,16.07
2022-08-27T03:49:25.551Z,16.13
2022-08-27T03:51:57.857Z,16.21
2022-08-27T03:54:29.483Z,16.23
2022-08-27T03:57:04.834Z,16.21
2022-08-27T03:59:36.449Z,16.22
2022-08-27T04:02:08.503Z,16.16
2022-08-27T04:04:41.266Z,16.12
2022-08-27T04:07:13.011Z,16.12
2022-08-27T04:09:44.744Z,16.17
2022-08-27T04:12:16.293Z,16.33
2022-08-27T04:14:48.254Z,16.72
2022-08-27T04:17:20.165Z,17.26
2022-08-27T04:19:54.239Z,17.67
2022-08-27T04:22:25.801Z,17.78
2022-08-27T04:24:57.849Z,17.91
2022-08-27T04:27:29.660Z,18.41
2022-08-27T04:30:02.564Z,19.14
2022-08-27T04:32:34.416Z,19.92
2022-08-27T04:35:07.479Z,20.79
2022-08-27T04:37:39.236Z,21.50
2022-08-27T04:40:12.093Z,21.73
2022-08-27T04:42:46.436Z,21.94
2022-08-27T04:45:18.143Z,22.29
2022-08-27T04:47:49.863Z,22.71
2022-08-27T04:50:21.477Z,23.15
2022-08-27T04:53:01.677Z,23.74
2022-08-27T04:55:33.292Z,24.35
2022-08-27T04:58:04.952Z,25.00
2022-08-27T05:00:41.606Z,25.66
2022-08-27T05:03:16.553Z,26.33
2022-08-27T05:05:48.849Z,26.91
2022-08-27T05:08:21.136Z,27.37
2022-08-27T05:10:53.479Z,27.75
2022-08-27T05:13:25.728Z,28.13
2022-08-27T05:16:04.210Z,28.52
2022-08-27T05:18:42.251Z,28.98
2022-08-27T05:21:22.345Z,29.45
2022-08-27T05:23:56.600Z,29.87
2022-08-27T05:26:28.951Z,30.37
2022-08-27T05:29:03.349Z,30.84
2022-08-27T05:31:35.658Z,31.27
2022-08-27T05:34:08.498Z,31.67
2022-08-27T05:36:48.940Z,32.08
2022-08-27T05:39:21.449Z,32.58
2022-08-27T05:41:57.325Z,33.20
2022-08-27T05:44:44.511Z,33.84
2022-08-27T05:47:18.517Z,34.47
2022-08-27T05:49:52.345Z,35.05
2022-08-27T05:52:24.133Z,35.69
2022-08-27T05:54:55.926Z,36.30
2022-08-27T05:57:27.576Z,36.82
2022-08-27T06:00:17.687Z,37.20
2022-08-27T06:02:49.479Z,37.50
2022-08-27T06:05:21.721Z,37.80
2022-08-27T06:07:53.315Z,38.05
2022-08-27T06:10:24.999Z,38.41
2022-08-27T06:12:59.103Z,38.97
2022-08-27T06:15:31.760Z,39.51
2022-08-27T06:18:05.331Z,40.03
2022-08-27T06:20:37.389Z,40.58
2022-08-27T06:23:09.447Z,41.13
2022-08-27T06:25:43.825Z,41.64
2022-08-27T06:28:16.542Z,42.02
2022-08-27T06:30:48.248Z,42.37
2022-08-27T06:33:21.292Z,42.55
2022-08-27T06:35:52.975Z,42.71
2022-08-27T06:38:24.778Z,42.81
2022-08-27T06:40:57.292Z,42.52
2022-08-27T06:43:29.325Z,42.18
2022-08-27T06:46:05.120Z,42.21
2022-08-27T06:48:39.639Z,42.46
2022-08-27T06:51:13.504Z,42.81
2022-08-27T06:53:47.124Z,43.23
2022-08-27T06:56:21.686Z,43.68
2022-08-27T06:58:56.546Z,44.16
2022-08-27T07:01:32.984Z,44.44
2022-08-27T07:04:07.027Z,44.73
2022-08-27T07:06:40.957Z,45.02
2022-08-27T07:09:12.597Z,45.08
2022-08-27T07:11:44.191Z,44.68
2022-08-27T07:14:18.238Z,43.98
2022-08-27T07:16:51.564Z,43.44
2022-08-27T07:19:24.352Z,43.12
2022-08-27T07:21:56.395Z,42.99
2022-08-27T07:24:28.084Z,42.77
2022-08-27T07:26:59.944Z,42.51
2022-08-27T07:29:32.920Z,42.57
2022-08-27T07:32:04.728Z,42.06
2022-08-27T07:34:36.553Z,40.80
2022-08-27T07:37:08.415Z,39.17
2022-08-27T07:39:40.051Z,37.74
2022-08-27T07:42:29.152Z,36.62
2022-08-27T07:45:00.908Z,35.59
2022-08-27T07:47:33.556Z,34.75
2022-08-27T07:50:06.132Z,34.09
2022-08-27T07:52:37.697Z,33.55
2022-08-27T07:55:14.176Z,33.10
2022-08-27T07:57:48.073Z,32.74
2022-08-27T08:00:21.550Z,32.35
2022-08-27T08:02:53.572Z,31.96
2022-08-27T08:05:25.292Z,31.51
2022-08-27T08:07:56.891Z,31.11
2022-08-27T08:10:32.351Z,30.81
2022-08-27T08:13:07.064Z,30.56
2022-08-27T08:15:44.550Z,30.37
2022-08-27T08:18:16.759Z,30.26
2022-08-27T08:20:58.028Z,30.15
2022-08-27T08:23:30.807Z,30.03
2022-08-27T08:26:02.918Z,29.91
2022-08-27T08:28:34.768Z,29.74
2022-08-27T08:31:07.092Z,29.54
2022-08-27T08:33:39.034Z,29.41
2022-08-27T08:36:13.380Z,29.37
2022-08-27T08:38:46.370Z,29.35
2022-08-27T08:41:40.311Z,29.25
2022-08-27T08:44:32.568Z,29.15
2022-08-27T08:47:10.042Z,29.09
2022-08-27T08:49:50.697Z,29.06
2022-08-27T08:52:34.011Z,29.07
2022-08-27T08:55:16.218Z,29.09
2022-08-27T08:57:52.895Z,29.11
2022-08-27T09:00:25.216Z,29.12
2022-08-27T09:02:58.425Z,29.15
2022-08-27T09:05:31.094Z,29.12
2022-08-27T09:08:32.902Z,29.15
2022-08-27T09:11:15.465Z,29.15
2022-08-27T09:13:52.445Z,29.11
2022-08-27T09:16:24.637Z,29.16
2022-08-27T09:18:59.553Z,29.23
2022-08-27T09:21:41.866Z,29.26
2022-08-27T09:24:19.778Z,29.24
2022-08-27T09:26:51.440Z,29.21
2022-08-27T09:29:27.439Z,29.21
2022-08-27T09:32:01.476Z,29.12
2022-08-27T09:34:39.045Z,29.15
2022-08-27T09:37:15.454Z,29.22
2022-08-27T09:39:57.851Z,29.31
2022-08-27T09:42:34.368Z,29.38
2022-08-27T09:45:12.008Z,29.45
2022-08-27T09:47:49.787Z,29.50
2022-08-27T09:50:24.626Z,29.55
2022-08-27T09:52:59.256Z,29.62
2022-08-27T09:55:46.246Z,29.65
2022-08-27T09:58:25.705Z,29.67
2022-08-27T10:01:04.216Z,29.62
2022-08-27T10:03:42.331Z,29.56
2022-08-27T10:06:14.415Z,29.51
2022-08-27T10:08:50.104Z,29.48
2022-08-27T10:11:26.394Z,29.46
2022-08-27T10:14:01.770Z,29.48
2022-08-27T10:16:56.352Z,29.49
2022-08-27T10:19:42.400Z,29.45
2022-08-27T10:22:24.156Z,29.46
2022-08-27T10:25:33.782Z,29.52
2022-08-27T10:29:26.494Z,29.46
2022-08-27T10:32:21.770Z,29.55
2022-08-27T10:35:06.004Z,29.68
2022-08-27T10:37:48.438Z,29.76
2022-08-27T10:40:26.384Z,29.82
2022-08-27T10:43:10.919Z,29.91
2022-08-27T10:45:51.427Z,30.02
2022-08-27T10:48:32.236Z,30.09
2022-08-27T10:51:08.463Z,30.17
2022-08-27T10:53:52.655Z,30.19
2022-08-27T10:56:31.685Z,30.22
2022-08-27T10:59:17.605Z,30.27
2022-08-27T11:01:59.423Z,30.37
2022-08-27T11:04:36.685Z,30.47
2022-08-27T11:07:16.335Z,30.53
2022-08-27T11:09:56.671Z,30.55
2022-08-27T11:12:34.908Z,30.55
2022-08-27T11:15:13.236Z,30.54
2022-08-27T11:17:54.964Z,30.54
2022-08-27T11:20:32.077Z,30.59
2022-08-27T11:23:08.549Z,30.60
2022-08-27T11:25:52.687Z,30.62
2022-08-27T11:28:29.761Z,30.61
2022-08-27T11:31:23.777Z,30.59
2022-08-27T11:34:32.910Z,30.57
2022-08-27T11:37:15.836Z,30.53
2022-08-27T11:40:07.879Z,30.43
2022-08-27T11:42:45.763Z,30.36
2022-08-27T11:45:24.638Z,30.30
2022-08-27T11:47:58.675Z,30.27
2022-08-27T11:50:32.356Z,30.24
2022-08-27T11:53:06.834Z,30.19
2022-08-27T11:55:40.765Z,30.13
2022-08-27T11:58:27.121Z,30.10
2022-08-27T12:01:04.358Z,30.08
2022-08-27T12:03:37.272Z,30.06
2022-08-27T12:06:21.871Z,30.07
2022-08-27T12:08:53.692Z,30.10
2022-08-27T12:11:45.610Z,30.10
2022-08-27T12:14:35.931Z,30.10
2022-08-27T12:17:17.816Z,30.10
2022-08-27T12:20:02.479Z,30.09
2022-08-27T12:23:06.189Z,30.01
2022-08-27T12:25:37.989Z,29.94
2022-08-27T12:28:11.246Z,29.96
2022-08-27T12:30:52.001Z,30.00
2022-08-27T12:33:34.496Z,30.04
2022-08-27T12:36:15.620Z,30.08
2022-08-27T12:38:57.154Z,30.12
2022-08-27T12:41:43.778Z,30.13
2022-08-27T12:44:26.362Z,30.13
2022-08-27T12:47:07.706Z,30.15
2022-08-27T12:49:45.114Z,30.18
2022-08-27T12:52:31.455Z,30.21
2022-08-27T12:55:15.526Z,30.21
2022-08-27T12:57:53.114Z,30.22
2022-08-27T13:00:27.845Z,30.19
2022-08-27T13:03:25.382Z,30.13
2022-08-27T13:06:04.030Z,30.08
2022-08-27T13:08:37.780Z,30.10
2022-08-27T13:11:18.097Z,30.14
2022-08-27T13:13:50.278Z,30.16
2022-08-27T13:16:23.291Z,30.09
2022-08-27T13:18:55.562Z,30.02
2022-08-27T13:21:32.723Z,29.92
2022-08-27T13:24:07.032Z,29.89
2022-08-27T13:26:41.290Z,29.90
2022-08-27T13:29:13.095Z,29.93
2022-08-27T13:31:51.057Z,29.92
2022-08-27T13:34:28.133Z,29.88
2022-08-27T13:37:04.211Z,29.86
2022-08-27T13:39:38.273Z,29.90
2022-08-27T13:42:10.534Z,29.94
2022-08-27T13:44:44.614Z,29.97
2022-08-27T13:47:24.224Z,30.02
2022-08-27T13:50:07.612Z,30.06
2022-08-27T13:52:57.326Z,30.03
2022-08-27T13:55:33.661Z,30.03
2022-08-27T13:58:24.484Z,29.99
2022-08-27T14:00:56.568Z,29.89
2022-08-27T14:03:35.843Z,29.87
2022-08-27T14:06:08.284Z,29.89
2022-08-27T14:08:41.992Z,29.91
2022-08-27T14:11:15.586Z,29.93
2022-08-27T14:13:49.341Z,29.95
2022-08-27T14:16:29.492Z,30.00
2022-08-27T14:19:09.587Z,30.01
2022-08-27T14:21:43.831Z,30.02
2022-08-27T14:24:15.418Z,30.02
2022-08-27T14:26:50.015Z,29.98
2022-08-27T14:29:22.730Z,29.96
2022-08-27T14:31:56.778Z,29.91
2022-08-27T14:34:28.626Z,29.78
2022-08-27T14:37:00.630Z,29.67
2022-08-27T14:39:32.958Z,29.63
2022-08-27T14:42:05.526Z,29.61
2022-08-27T14:44:38.047Z,29.63
2022-08-27T14:47:11.895Z,29.65
2022-08-27T14:49:46.471Z,29.62
2022-08-27T14:52:18.494Z,29.56
2022-08-27T14:54:50.223Z,29.50
2022-08-27T14:57:22.670Z,29.45
2022-08-27T14:59:54.424Z,29.39
2022-08-27T15:02:26.378Z,29.31
2022-08-27T15:04:58.209Z,29.24
2022-08-27T15:07:33.022Z,29.16
2022-08-27T15:10:04.993Z,29.07
2022-08-27T15:12:37.526Z,29.00
2022-08-27T15:15:12.973Z,28.91
2022-08-27T15:17:44.705Z,28.82
2022-08-27T15:20:19.989Z,28.71
2022-08-27T15:22:54.488Z,28.60
2022-08-27T15:25:27.185Z,28.51
2022-08-27T15:27:58.839Z,28.39
2022-08-27T15:30:32.525Z,28.24
2022-08-27T15:33:06.952Z,28.11
2022-08-27T15:35:38.566Z,27.98
2022-08-27T15:38:12.296Z,27.87
2022-08-27T15:40:44.203Z,27.77
2022-08-27T15:43:18.104Z,27.68
2022-08-27T15:45:49.763Z,27.60
2022-08-27T15:48:23.586Z,27.51
2022-08-27T15:50:58.779Z,27.41
2022-08-27T15:53:30.384Z,27.33
2022-08-27T15:56:03.291Z,27.24
2022-08-27T15:58:39.150Z,27.15
2022-08-27T16:01:14.044Z,27.08
2022-08-27T16:03:47.746Z,27.01
2022-08-27T16:06:21.876Z,26.94
2022-08-27T16:08:53.827Z,26.87
2022-08-27T16:11:25.426Z,26.81
2022-08-27T16:13:57.112Z,26.72
2022-08-27T16:16:32.961Z,26.63
2022-08-27T16:19:07.025Z,26.56
2022-08-27T16:21:38.615Z,26.49
2022-08-27T16:24:10.933Z,26.42
2022-08-27T16:26:42.641Z,26.35
2022-08-27T16:29:14.362Z,26.28
2022-08-27T16:31:46.234Z,26.20
2022-08-27T16:34:31.232Z,26.11
2022-08-27T16:37:02.736Z,26.02
2022-08-27T16:39:38.637Z,25.94
2022-08-27T16:42:31.451Z,25.89
2022-08-27T16:45:12.381Z,25.91
2022-08-27T16:48:05.866Z,26.21
2022-08-27T16:50:38.385Z,26.51
2022-08-27T16:53:14.049Z,26.67
2022-08-27T16:55:50.110Z,26.84
2022-08-27T16:58:26.080Z,27.01
2022-08-27T17:01:01.019Z,27.00
2022-08-27T17:04:06.868Z,26.65
2022-08-27T17:06:34.192Z,26.26
2022-08-27T17:09:07.724Z,26.01
2022-08-27T17:11:41.886Z,25.81
2022-08-27T17:14:13.752Z,25.63
2022-08-27T17:16:45.395Z,25.47
2022-08-27T17:19:18.720Z,25.33
2022-08-27T17:21:52.416Z,25.21
2022-08-27T17:24:24.160Z,25.15
2022-08-27T17:26:55.666Z,25.26
2022-08-27T17:29:30.168Z,25.36
2022-08-27T17:32:04.122Z,25.45
2022-08-27T17:34:36.626Z,25.49
2022-08-27T17:37:08.243Z,25.54
2022-08-27T17:39:39.841Z,25.58
2022-08-27T17:42:11.575Z,25.61
2022-08-27T17:44:43.189Z,25.64
2022-08-27T17:47:17.145Z,25.63
2022-08-27T17:49:48.834Z,25.64
2022-08-27T17:52:21.138Z,25.65
2022-08-27T17:54:56.355Z,25.65
2022-08-27T17:57:30.289Z,25.64
2022-08-27T18:00:16.769Z,25.58
2022-08-27T18:02:50.830Z,25.48
2022-08-27T18:05:25.521Z,25.42
2022-08-27T18:07:57.607Z,25.38
2022-08-27T18:10:29.834Z,25.34
2022-08-27T18:13:01.465Z,25.31
2022-08-27T18:15:35.468Z,25.29
2022-08-27T18:18:09.535Z,25.27
2022-08-27T18:20:44.409Z,25.25
2022-08-27T18:23:17.100Z,25.22
2022-08-27T18:25:51.768Z,25.18
2022-08-27T18:28:24.277Z,25.14
2022-08-27T18:30:56.408Z,25.08
2022-08-27T18:33:28.127Z,25.06
2022-08-27T18:35:59.676Z,25.11
2022-08-27T18:38:31.451Z,25.15
2022-08-27T18:41:03.686Z,25.16
2022-08-27T18:43:39.671Z,25.08
2022-08-27T18:46:11.555Z,25.00
2022-08-27T18:48:43.212Z,24.90
2022-08-27T18:51:18.002Z,24.82
2022-08-27T18:53:50.161Z,24.76
2022-08-27T18:56:22.393Z,24.72
2022-08-27T18:58:53.973Z,24.66
2022-08-27T19:01:28.401Z,24.55
2022-08-27T19:04:00.556Z,24.43
2022-08-27T19:06:32.883Z,24.26
2022-08-27T19:09:05.217Z,24.07
2022-08-27T19:11:36.870Z,23.98
2022-08-27T19:14:08.525Z,23.91
2022-08-27T19:16:44.264Z,23.83
2022-08-27T19:19:20.302Z,23.77
2022-08-27T19:21:52.729Z,23.76
2022-08-27T19:24:24.717Z,23.77
2022-08-27T19:26:56.657Z,23.73
2022-08-27T19:29:28.172Z,23.68
2022-08-27T19:31:59.818Z,23.65
2022-08-27T19:34:31.511Z,23.57
2022-08-27T19:37:04.945Z,23.46
2022-08-27T19:39:38.236Z,23.29
2022-08-27T19:42:10.317Z,23.18
2022-08-27T19:44:44.175Z,23.17
2022-08-27T19:47:21.617Z,23.19
2022-08-27T19:49:53.194Z,23.21
2022-08-27T19:52:25.449Z,23.22
2022-08-27T19:55:13.171Z,23.20
2022-08-27T19:57:51.331Z,23.15
2022-08-27T20:00:27.641Z,23.10
2022-08-27T20:02:59.664Z,23.04
2022-08-27T20:05:31.617Z,22.98
2022-08-27T20:08:03.493Z,22.91
2022-08-27T20:10:36.540Z,22.86
2022-08-27T20:13:09.712Z,22.84
2022-08-27T20:15:42.136Z,22.86
2022-08-27T20:18:14.438Z,22.90
2022-08-27T20:20:46.972Z,22.92
2022-08-27T20:23:18.560Z,22.91
2022-08-27T20:25:52.268Z,22.90
2022-08-27T20:28:38.919Z,22.90
2022-08-27T20:31:11.492Z,22.89
2022-08-27T20:33:43.335Z,22.85
2022-08-27T20:36:15.324Z,22.81
2022-08-27T20:38:49.005Z,22.76
2022-08-27T20:41:20.806Z,22.73
2022-08-27T20:43:52.618Z,22.71
2022-08-27T20:46:26.918Z,22.70
2022-08-27T20:48:59.361Z,22.69
2022-08-27T20:51:51.292Z,22.66
2022-08-27T20:54:24.910Z,22.62
2022-08-27T20:56:56.477Z,22.62
2022-08-27T20:59:45.673Z,22.64
2022-08-27T21:02:21.802Z,22.69
2022-08-27T21:04:53.748Z,22.75
2022-08-27T21:07:26.084Z,22.78
2022-08-27T21:09:57.759Z,22.79
2022-08-27T21:12:31.001Z,22.74
2022-08-27T21:15:06.908Z,22.67
2022-08-27T21:17:38.577Z,22.60
2022-08-27T21:20:14.061Z,22.55
2022-08-27T21:22:46.240Z,22.51
2022-08-27T21:25:17.910Z,22.48
2022-08-27T21:27:49.456Z,22.48
2022-08-27T21:30:21.928Z,22.48
2022-08-27T21:32:56.935Z,22.47
2022-08-27T21:35:31.180Z,22.47
2022-08-27T21:38:03.390Z,22.47
2022-08-27T21:40:35.096Z,22.46
2022-08-27T21:43:07.189Z,22.47
2022-08-27T21:45:41.578Z,22.49
2022-08-27T21:48:13.529Z,22.49
2022-08-27T21:50:48.506Z,22.51
2022-08-27T21:53:25.813Z,22.51
2022-08-27T21:55:57.422Z,22.51
2022-08-27T21:58:32.123Z,22.53
2022-08-27T22:01:05.941Z,22.53
2022-08-27T22:03:37.937Z,22.55
2022-08-27T22:06:12.913Z,22.55
2022-08-27T22:08:44.665Z,22.47
2022-08-27T22:11:23.964Z,22.36
2022-08-27T22:13:59.285Z,22.31
2022-08-27T22:16:30.911Z,22.48
2022-08-27T22:19:02.609Z,22.54
2022-08-27T22:21:34.690Z,22.42
2022-08-27T22:24:07.110Z,22.33
2022-08-27T22:26:39.012Z,22.27
2022-08-27T22:29:10.666Z,22.23
2022-08-27T22:31:42.709Z,22.22
2022-08-27T22:34:15.103Z,22.21
2022-08-27T22:36:48.235Z,22.19
2022-08-27T22:39:19.866Z,22.15
2022-08-27T22:41:51.645Z,22.11
2022-08-27T22:44:26.604Z,22.05
2022-08-27T22:46:58.901Z,21.92
2022-08-27T22:49:30.509Z,21.83
2022-08-27T22:52:02.106Z,21.74
2022-08-27T22:54:33.848Z,21.68
2022-08-27T22:57:05.725Z,21.68
2022-08-27T22:59:42.258Z,21.68
2022-08-27T23:02:33.850Z,21.69
2022-08-27T23:05:11.690Z,21.68
2022-08-27T23:07:43.782Z,21.68
2022-08-27T23:10:18.178Z,21.68
2022-08-27T23:12:50.245Z,21.70
2022-08-27T23:15:27.504Z,21.71
2022-08-27T23:17:59.710Z,21.72
2022-08-27T23:20:31.364Z,21.73
2022-08-27T23:23:03.098Z,21.76
2022-08-27T23:25:52.155Z,21.75
2022-08-27T23:28:24.352Z,21.73
2022-08-27T23:30:56.342Z,21.70
2022-08-27T23:33:28.430Z,21.69
2022-08-27T23:36:00.003Z,21.66
2022-08-27T23:38:31.708Z,21.63
2022-08-27T23:41:08.006Z,21.56
2022-08-27T23:43:39.768Z,21.46
2022-08-27T23:46:13.096Z,21.37
2022-08-27T23:48:45.110Z,21.33
2022-08-27T23:51:18.345Z,21.30
2022-08-27T23:53:50.862Z,21.26
2022-08-27T23:56:22.573Z,21.19
2022-08-27T23:59:01.472Z,21.11
